Terminal Aerodrome Forecast
Issued by NWS

Home | Current Version | Previous Version | Graphics & Text | Print | Product List | Glossary On
Versions: 1 2 3 4 5 6 7 8 9 10 11 12 13 14 15 16 17 18 19 20 21 22
000
FTUS43 KGRB 271412 AAA
TAFAUW
TAF AMD
KAUW 271412Z 2714/2812 29008G15KT P6SM -RA SCT007 OVC035
      TEMPO 2714/2716 5SM -SHRA SCT009 BKN015
     FM271600 29008KT P6SM SCT035 BKN250
     FM271800 25009G16KT P6SM SCT035 BKN080
     FM280100 22005KT P6SM SCT035 SCT080
     FM280500 VRB03KT P6SM SKC
      TEMPO 2807/2811 2SM BR SCT004=

USA.gov is the U.S. government's official web portal to all federal, state and local government web resources and services.